Tombstone, AZ

9:10 PM MST on September 02, 2014 (GMT -0700)
Dragoon Mountain Ranch 3 | Change Station
CLOSE
Current Station
Personal Weather Station
Location: Saint David, AZ
Elevation: 4580 ft
Nearby Weather Stations

Elev 4580 ft 31.86 °N, 110.08 °W | Updated 9 seconds ago

Clear
Clear
71.3 °F
Feels Like 77 °F
N
1.0
Wind Variable Wind from ENE
Gusts 2.0 mph

Today
High -- | Low -- °F
--% Chance of Precip.
Yesterday
High -- | Low -- °F
Precip. -- in
5:56 AM 6:42 PM
First Quarter, 58% visible
Pressure 29.84 in
Visibility 10.0 miles
Clouds Few 10000 ft
Few 30000 ft
Heat Index 77 °F
Dew Point 47 °F
Humidity 42%
Rainfall 0.00 in
Snow Depth Not available.
UV 0 out of 12
Pollen 6.90 out of 12
Air Quality Not available.
Flu Activity Not available.
METAR KFHU 030355Z 22007KT 10SM FEW100 FEW300 27/07 A3005 RMK SLP103

More Conditions Fewer Conditions

Pressure 29.84 in
Visibility 10.0 miles
Clouds Few 10000 ft
Few 30000 ft
Heat Index 77 °F
Dew Point 47 °F
Humidity 42%
Rainfall 0.00 in
Snow Depth Not available.
UV 0 out of 12
Pollen 6.90 out of 12
Air Quality Not available.
Flu Activity Not available.
METAR KFHU 030355Z 22007KT 10SM FEW100 FEW300 27/07 A3005 RMK SLP103

More Conditions Fewer Conditions

10-Day Weather Forecast

Almanac

Astronomy

Sep. 02, 2014 Rise Set
Actual Time 5:56 AM MST 6:42 PM MST
Civil Twilight 5:31 AM MST 7:07 PM MST
Nautical Twilight 5:02 AM MST 7:36 PM MST
Astronomical Twilight 4:32 AM MST 8:06 PM MST
Moon 1:18 PM MST (9/2) No Moon Set
Length of Visible Light 13h 35m
Length of Day
12h 46m
Tomorrow will be 1m 51s shorter.
First Quarter, 58% of the Moon is Illuminated
Sep 3
First Quarter
Sep 8
Full
Sep 15
Last Quarter
Sep 24
New
Oct 1
First Quarter

Today's Extremes

State Highs State Lows

Community

WunderPhotos

Upload Photos

1,749,868 photos uploaded!

Nearby

Snow Depth

Station Depth Elevation
Beaver Head 30 in 7990 ft
Coronado Trail 1 in 8400 ft
Workman Creek 0 in 6900 ft
Snowslide Canyon 0 in 9730 ft

Earthquake Activity

City Distance Mag. Time & Date
Lordsburg, New Mexico 82 miles 2.8 7:52 PM MST
2014-09-02
Lordsburg, New Mexico 84 miles 2.6 8:21 AM MST
2014-09-02
Minimum magnitude displayed is 2.5.

Coastal Water Temperatures

Place Temperature
No Stations Reporting

Nearby Weather Stations